sensor_id;sensor_type;location;lat;lon;timestamp;P1;durP1;ratioP1;P2;durP2;ratioP2
38865;SDS011;24612;48.984;8.394;2022-07-21T00:00:18;10.85;;;8.57;;
38865;SDS011;24612;48.984;8.394;2022-07-21T00:02:47;8.90;;;8.00;;
38865;SDS011;24612;48.984;8.394;2022-07-21T00:05:15;9.00;;;8.07;;
38865;SDS011;24612;48.984;8.394;2022-07-21T00:07:43;7.88;;;7.10;;
38865;SDS011;24612;48.984;8.394;2022-07-21T00:10:14;9.48;;;7.85;;
38865;SDS011;24612;48.984;8.394;2022-07-21T00:12:43;8.75;;;7.68;;
38865;SDS011;24612;48.984;8.394;2022-07-21T00:15:12;9.90;;;7.68;;
38865;SDS011;24612;48.984;8.394;2022-07-21T00:17:41;8.23;;;7.32;;
38865;SDS011;24612;48.984;8.394;2022-07-21T00:20:10;8.30;;;7.30;;
38865;SDS011;24612;48.984;8.394;2022-07-21T00:22:40;8.50;;;6.88;;
38865;SDS011;24612;48.984;8.394;2022-07-21T00:25:09;7.68;;;6.95;;
38865;SDS011;24612;48.984;8.394;2022-07-21T00:27:41;7.63;;;6.93;;
38865;SDS011;24612;48.984;8.394;2022-07-21T00:30:10;8.30;;;6.70;;
38865;SDS011;24612;48.984;8.394;2022-07-21T00:32:39;8.55;;;7.32;;
38865;SDS011;24612;48.984;8.394;2022-07-21T00:35:08;8.25;;;7.35;;
38865;SDS011;24612;48.984;8.394;2022-07-21T00:37:37;10.70;;;7.65;;
38865;SDS011;24612;48.984;8.394;2022-07-21T00:40:05;7.55;;;6.78;;
38865;SDS011;24612;48.984;8.394;2022-07-21T00:42:34;7.75;;;6.93;;
38865;SDS011;24612;48.984;8.394;2022-07-21T00:45:05;9.02;;;7.20;;
38865;SDS011;24612;48.984;8.394;2022-07-21T00:47:34;7.30;;;6.70;;
38865;SDS011;24612;48.984;8.394;2022-07-21T00:50:04;7.03;;;6.32;;
38865;SDS011;24612;48.984;8.394;2022-07-21T00:52:34;7.60;;;6.82;;
38865;SDS011;24612;48.984;8.394;2022-07-21T00:55:03;8.45;;;7.32;;
38865;SDS011;24612;48.984;8.394;2022-07-21T00:57:32;7.70;;;6.70;;
38865;SDS011;24612;48.984;8.394;2022-07-21T01:00:05;10.00;;;7.05;;
38865;SDS011;24612;48.984;8.394;2022-07-21T01:02:35;8.10;;;6.47;;
38865;SDS011;24612;48.984;8.394;2022-07-21T01:05:04;9.60;;;6.75;;
38865;SDS011;24612;48.984;8.394;2022-07-21T01:07:33;9.25;;;6.90;;
38865;SDS011;24612;48.984;8.394;2022-07-21T01:10:02;8.48;;;7.03;;
38865;SDS011;24612;48.984;8.394;2022-07-21T01:12:30;7.47;;;6.75;;
38865;SDS011;24612;48.984;8.394;2022-07-21T01:14:58;8.55;;;7.50;;
38865;SDS011;24612;48.984;8.394;2022-07-21T01:17:28;7.13;;;6.43;;
38865;SDS011;24612;48.984;8.394;2022-07-21T01:19:56;8.00;;;6.57;;
38865;SDS011;24612;48.984;8.394;2022-07-21T01:22:25;9.82;;;6.70;;
38865;SDS011;24612;48.984;8.394;2022-07-21T01:24:53;8.07;;;7.10;;
38865;SDS011;24612;48.984;8.394;2022-07-21T01:27:23;8.10;;;7.40;;
38865;SDS011;24612;48.984;8.394;2022-07-21T01:29:52;8.63;;;6.97;;
38865;SDS011;24612;48.984;8.394;2022-07-21T01:32:20;7.72;;;6.93;;
38865;SDS011;24612;48.984;8.394;2022-07-21T01:34:48;9.60;;;6.90;;
38865;SDS011;24612;48.984;8.394;2022-07-21T01:37:19;7.65;;;6.90;;
38865;SDS011;24612;48.984;8.394;2022-07-21T01:39:50;9.63;;;6.70;;
38865;SDS011;24612;48.984;8.394;2022-07-21T01:42:36;10.18;;;6.70;;
38865;SDS011;24612;48.984;8.394;2022-07-21T01:45:05;7.95;;;7.15;;
38865;SDS011;24612;48.984;8.394;2022-07-21T01:47:33;8.65;;;7.07;;
38865;SDS011;24612;48.984;8.394;2022-07-21T01:50:02;9.38;;;7.72;;
38865;SDS011;24612;48.984;8.394;2022-07-21T01:52:30;10.15;;;8.02;;
38865;SDS011;24612;48.984;8.394;2022-07-21T01:55:00;8.52;;;7.70;;
38865;SDS011;24612;48.984;8.394;2022-07-21T01:57:28;11.85;;;7.82;;
38865;SDS011;24612;48.984;8.394;2022-07-21T01:59:56;7.60;;;6.90;;
38865;SDS011;24612;48.984;8.394;2022-07-21T02:02:24;9.30;;;7.80;;
38865;SDS011;24612;48.984;8.394;2022-07-21T02:04:52;8.65;;;7.78;;
38865;SDS011;24612;48.984;8.394;2022-07-21T02:07:20;10.20;;;7.50;;
38865;SDS011;24612;48.984;8.394;2022-07-21T02:09:48;8.32;;;7.38;;
38865;SDS011;24612;48.984;8.394;2022-07-21T02:12:17;10.90;;;8.25;;
38865;SDS011;24612;48.984;8.394;2022-07-21T02:14:45;8.63;;;7.68;;
38865;SDS011;24612;48.984;8.394;2022-07-21T02:17:13;10.43;;;7.40;;
38865;SDS011;24612;48.984;8.394;2022-07-21T02:19:41;8.13;;;7.32;;
38865;SDS011;24612;48.984;8.394;2022-07-21T02:22:09;9.05;;;6.75;;
38865;SDS011;24612;48.984;8.394;2022-07-21T02:24:37;9.48;;;7.53;;
38865;SDS011;24612;48.984;8.394;2022-07-21T02:27:07;10.32;;;6.60;;
38865;SDS011;24612;48.984;8.394;2022-07-21T02:29:36;7.75;;;7.03;;
38865;SDS011;24612;48.984;8.394;2022-07-21T02:32:04;8.00;;;7.20;;
38865;SDS011;24612;48.984;8.394;2022-07-21T02:34:33;7.75;;;7.00;;
38865;SDS011;24612;48.984;8.394;2022-07-21T02:37:01;9.15;;;7.05;;
38865;SDS011;24612;48.984;8.394;2022-07-21T02:39:29;7.47;;;6.30;;
38865;SDS011;24612;48.984;8.394;2022-07-21T02:41:57;9.10;;;7.07;;
38865;SDS011;24612;48.984;8.394;2022-07-21T02:44:25;7.13;;;6.43;;
38865;SDS011;24612;48.984;8.394;2022-07-21T02:46:54;10.20;;;7.18;;
38865;SDS011;24612;48.984;8.394;2022-07-21T02:49:22;8.02;;;6.95;;
38865;SDS011;24612;48.984;8.394;2022-07-21T02:51:50;8.93;;;7.38;;
38865;SDS011;24612;48.984;8.394;2022-07-21T02:54:18;8.98;;;7.15;;
38865;SDS011;24612;48.984;8.394;2022-07-21T02:56:46;8.20;;;7.35;;
38865;SDS011;24612;48.984;8.394;2022-07-21T02:59:15;8.48;;;7.55;;
38865;SDS011;24612;48.984;8.394;2022-07-21T03:01:43;8.98;;;7.18;;
38865;SDS011;24612;48.984;8.394;2022-07-21T03:04:12;7.75;;;6.95;;
38865;SDS011;24612;48.984;8.394;2022-07-21T03:06:40;9.35;;;7.72;;
38865;SDS011;24612;48.984;8.394;2022-07-21T03:09:08;11.13;;;7.63;;
38865;SDS011;24612;48.984;8.394;2022-07-21T03:11:37;10.68;;;8.23;;
38865;SDS011;24612;48.984;8.394;2022-07-21T03:14:05;8.82;;;7.97;;
38865;SDS011;24612;48.984;8.394;2022-07-21T03:16:33;8.00;;;7.30;;
38865;SDS011;24612;48.984;8.394;2022-07-21T03:19:01;10.38;;;7.82;;
38865;SDS011;24612;48.984;8.394;2022-07-21T03:21:32;11.93;;;8.15;;
38865;SDS011;24612;48.984;8.394;2022-07-21T03:24:00;9.50;;;8.60;;
38865;SDS011;24612;48.984;8.394;2022-07-21T03:26:28;9.13;;;8.10;;
38865;SDS011;24612;48.984;8.394;2022-07-21T03:28:57;11.93;;;8.30;;
38865;SDS011;24612;48.984;8.394;2022-07-21T03:31:25;10.57;;;8.35;;
38865;SDS011;24612;48.984;8.394;2022-07-21T03:33:53;8.70;;;7.85;;
38865;SDS011;24612;48.984;8.394;2022-07-21T03:36:21;11.27;;;8.38;;
38865;SDS011;24612;48.984;8.394;2022-07-21T03:38:50;8.80;;;7.90;;
38865;SDS011;24612;48.984;8.394;2022-07-21T03:41:19;8.75;;;7.85;;
38865;SDS011;24612;48.984;8.394;2022-07-21T03:43:47;10.55;;;7.72;;
38865;SDS011;24612;48.984;8.394;2022-07-21T03:46:15;10.98;;;8.15;;
38865;SDS011;24612;48.984;8.394;2022-07-21T03:48:43;8.60;;;7.70;;
38865;SDS011;24612;48.984;8.394;2022-07-21T03:51:13;9.52;;;8.50;;
38865;SDS011;24612;48.984;8.394;2022-07-21T03:53:41;9.00;;;8.10;;
38865;SDS011;24612;48.984;8.394;2022-07-21T03:56:11;9.13;;;8.23;;
38865;SDS011;24612;48.984;8.394;2022-07-21T03:58:39;9.70;;;8.55;;
38865;SDS011;24612;48.984;8.394;2022-07-21T04:01:07;9.52;;;8.48;;
38865;SDS011;24612;48.984;8.394;2022-07-21T04:03:35;9.35;;;8.30;;
38865;SDS011;24612;48.984;8.394;2022-07-21T04:06:03;11.07;;;9.07;;
38865;SDS011;24612;48.984;8.394;2022-07-21T04:08:36;9.05;;;8.13;;
38865;SDS011;24612;48.984;8.394;2022-07-21T04:11:04;9.93;;;8.88;;
38865;SDS011;24612;48.984;8.394;2022-07-21T04:13:34;9.57;;;7.85;;
38865;SDS011;24612;48.984;8.394;2022-07-21T04:16:02;10.60;;;8.63;;
38865;SDS011;24612;48.984;8.394;2022-07-21T04:18:30;10.75;;;8.30;;
38865;SDS011;24612;48.984;8.394;2022-07-21T04:20:58;8.85;;;8.02;;
38865;SDS011;24612;48.984;8.394;2022-07-21T04:23:26;14.23;;;8.75;;
38865;SDS011;24612;48.984;8.394;2022-07-21T04:25:55;11.00;;;9.43;;
38865;SDS011;24612;48.984;8.394;2022-07-21T04:28:23;10.07;;;8.02;;
38865;SDS011;24612;48.984;8.394;2022-07-21T04:30:52;11.70;;;8.88;;
38865;SDS011;24612;48.984;8.394;2022-07-21T04:33:20;10.13;;;9.00;;
38865;SDS011;24612;48.984;8.394;2022-07-21T04:35:48;10.80;;;9.00;;
38865;SDS011;24612;48.984;8.394;2022-07-21T04:38:16;9.82;;;8.82;;
38865;SDS011;24612;48.984;8.394;2022-07-21T04:40:45;11.25;;;9.35;;
38865;SDS011;24612;48.984;8.394;2022-07-21T04:43:13;10.82;;;9.02;;
38865;SDS011;24612;48.984;8.394;2022-07-21T04:45:41;9.73;;;8.82;;
38865;SDS011;24612;48.984;8.394;2022-07-21T04:48:10;12.65;;;10.30;;
38865;SDS011;24612;48.984;8.394;2022-07-21T04:50:38;11.50;;;8.95;;
38865;SDS011;24612;48.984;8.394;2022-07-21T04:53:06;12.85;;;9.23;;
38865;SDS011;24612;48.984;8.394;2022-07-21T05:29:43;9.90;;;8.90;;
38865;SDS011;24612;48.984;8.394;2022-07-21T05:32:11;10.52;;;9.45;;
38865;SDS011;24612;48.984;8.394;2022-07-21T05:34:39;10.48;;;9.48;;
38865;SDS011;24612;48.984;8.394;2022-07-21T05:37:07;9.63;;;8.50;;
38865;SDS011;24612;48.984;8.394;2022-07-21T05:39:35;10.82;;;9.73;;
38865;SDS011;24612;48.984;8.394;2022-07-21T05:42:03;10.45;;;9.35;;
38865;SDS011;24612;48.984;8.394;2022-07-21T05:44:31;11.35;;;9.20;;
38865;SDS011;24612;48.984;8.394;2022-07-21T05:47:01;12.70;;;9.38;;
38865;SDS011;24612;48.984;8.394;2022-07-21T05:49:29;9.45;;;8.52;;
38865;SDS011;24612;48.984;8.394;2022-07-21T05:51:57;11.50;;;9.50;;
38865;SDS011;24612;48.984;8.394;2022-07-21T05:54:25;9.93;;;8.93;;
38865;SDS011;24612;48.984;8.394;2022-07-21T05:56:53;10.73;;;9.00;;
38865;SDS011;24612;48.984;8.394;2022-07-21T05:59:21;10.18;;;9.15;;
38865;SDS011;24612;48.984;8.394;2022-07-21T06:01:49;10.68;;;8.90;;
38865;SDS011;24612;48.984;8.394;2022-07-21T06:04:19;10.43;;;9.43;;
38865;SDS011;24612;48.984;8.394;2022-07-21T06:06:47;9.10;;;8.20;;
38865;SDS011;24612;48.984;8.394;2022-07-21T06:09:15;11.73;;;9.45;;
38865;SDS011;24612;48.984;8.394;2022-07-21T06:11:43;11.80;;;9.27;;
38865;SDS011;24612;48.984;8.394;2022-07-21T06:14:11;13.82;;;9.02;;
38865;SDS011;24612;48.984;8.394;2022-07-21T06:16:39;11.07;;;9.45;;
38865;SDS011;24612;48.984;8.394;2022-07-21T06:19:07;12.38;;;9.32;;
38865;SDS011;24612;48.984;8.394;2022-07-21T06:21:37;12.18;;;7.78;;
38865;SDS011;24612;48.984;8.394;2022-07-21T06:24:09;11.95;;;8.60;;
38865;SDS011;24612;48.984;8.394;2022-07-21T06:26:37;10.98;;;8.40;;
38865;SDS011;24612;48.984;8.394;2022-07-21T06:29:06;11.80;;;8.50;;
38865;SDS011;24612;48.984;8.394;2022-07-21T06:31:34;9.68;;;8.18;;
38865;SDS011;24612;48.984;8.394;2022-07-21T06:34:02;8.05;;;7.30;;
38865;SDS011;24612;48.984;8.394;2022-07-21T06:36:31;7.25;;;6.55;;
38865;SDS011;24612;48.984;8.394;2022-07-21T06:39:00;6.82;;;6.13;;
38865;SDS011;24612;48.984;8.394;2022-07-21T06:41:28;6.53;;;5.32;;
38865;SDS011;24612;48.984;8.394;2022-07-21T06:43:56;8.50;;;5.35;;
38865;SDS011;24612;48.984;8.394;2022-07-21T06:46:24;8.57;;;5.50;;
38865;SDS011;24612;48.984;8.394;2022-07-21T06:48:53;6.47;;;4.68;;
38865;SDS011;24612;48.984;8.394;2022-07-21T06:51:21;9.00;;;5.07;;
38865;SDS011;24612;48.984;8.394;2022-07-21T06:53:49;6.13;;;4.60;;
38865;SDS011;24612;48.984;8.394;2022-07-21T06:56:18;6.22;;;4.53;;
38865;SDS011;24612;48.984;8.394;2022-07-21T06:58:47;5.32;;;4.57;;
38865;SDS011;24612;48.984;8.394;2022-07-21T07:01:16;5.88;;;4.63;;
38865;SDS011;24612;48.984;8.394;2022-07-21T07:03:44;6.35;;;5.28;;
38865;SDS011;24612;48.984;8.394;2022-07-21T07:06:13;5.47;;;4.97;;
38865;SDS011;24612;48.984;8.394;2022-07-21T07:08:41;8.27;;;5.30;;
38865;SDS011;24612;48.984;8.394;2022-07-21T07:11:09;5.90;;;5.30;;
38865;SDS011;24612;48.984;8.394;2022-07-21T07:13:39;9.10;;;5.68;;
38865;SDS011;24612;48.984;8.394;2022-07-21T07:16:26;8.07;;;5.95;;
38865;SDS011;24612;48.984;8.394;2022-07-21T07:18:54;5.65;;;5.15;;
38865;SDS011;24612;48.984;8.394;2022-07-21T07:21:23;6.00;;;5.40;;
38865;SDS011;24612;48.984;8.394;2022-07-21T07:23:51;7.75;;;5.30;;
38865;SDS011;24612;48.984;8.394;2022-07-21T07:26:19;7.30;;;5.30;;
38865;SDS011;24612;48.984;8.394;2022-07-21T07:28:48;7.35;;;5.70;;
38865;SDS011;24612;48.984;8.394;2022-07-21T07:31:16;6.30;;;4.95;;
38865;SDS011;24612;48.984;8.394;2022-07-21T07:33:44;5.95;;;5.32;;
38865;SDS011;24612;48.984;8.394;2022-07-21T07:36:12;7.15;;;5.38;;
38865;SDS011;24612;48.984;8.394;2022-07-21T07:38:40;6.90;;;5.25;;
38865;SDS011;24612;48.984;8.394;2022-07-21T07:41:08;5.95;;;5.28;;
38865;SDS011;24612;48.984;8.394;2022-07-21T07:43:37;5.97;;;5.30;;
38865;SDS011;24612;48.984;8.394;2022-07-21T07:46:06;6.05;;;4.57;;
38865;SDS011;24612;48.984;8.394;2022-07-21T07:48:37;6.32;;;5.25;;
38865;SDS011;24612;48.984;8.394;2022-07-21T07:51:06;7.20;;;5.05;;
38865;SDS011;24612;48.984;8.394;2022-07-21T07:53:35;6.35;;;5.10;;
38865;SDS011;24612;48.984;8.394;2022-07-21T07:56:04;5.68;;;4.70;;
38865;SDS011;24612;48.984;8.394;2022-07-21T07:58:32;5.38;;;4.20;;
38865;SDS011;24612;48.984;8.394;2022-07-21T08:01:01;6.43;;;4.53;;
38865;SDS011;24612;48.984;8.394;2022-07-21T08:03:34;6.00;;;3.80;;
38865;SDS011;24612;48.984;8.394;2022-07-21T08:06:03;6.80;;;4.18;;
38865;SDS011;24612;48.984;8.394;2022-07-21T08:08:32;43.35;;;38.45;;
38865;SDS011;24612;48.984;8.394;2022-07-21T08:11:00;8.23;;;7.43;;
38865;SDS011;24612;48.984;8.394;2022-07-21T08:13:29;4.63;;;3.75;;
38865;SDS011;24612;48.984;8.394;2022-07-21T08:15:57;4.82;;;3.80;;
38865;SDS011;24612;48.984;8.394;2022-07-21T08:18:25;4.43;;;3.40;;
38865;SDS011;24612;48.984;8.394;2022-07-21T08:20:55;5.20;;;3.47;;
38865;SDS011;24612;48.984;8.394;2022-07-21T08:23:23;5.03;;;3.58;;
38865;SDS011;24612;48.984;8.394;2022-07-21T08:25:51;6.38;;;3.20;;
38865;SDS011;24612;48.984;8.394;2022-07-21T08:28:19;6.95;;;3.60;;
38865;SDS011;24612;48.984;8.394;2022-07-21T08:30:48;5.15;;;3.90;;
38865;SDS011;24612;48.984;8.394;2022-07-21T08:33:16;5.13;;;4.30;;
38865;SDS011;24612;48.984;8.394;2022-07-21T08:35:44;6.30;;;4.22;;
38865;SDS011;24612;48.984;8.394;2022-07-21T08:38:14;5.15;;;4.22;;
38865;SDS011;24612;48.984;8.394;2022-07-21T08:40:42;6.28;;;4.65;;
38865;SDS011;24612;48.984;8.394;2022-07-21T08:43:12;6.95;;;4.95;;
38865;SDS011;24612;48.984;8.394;2022-07-21T08:45:41;8.23;;;5.43;;
38865;SDS011;24612;48.984;8.394;2022-07-21T08:48:09;5.78;;;5.18;;
38865;SDS011;24612;48.984;8.394;2022-07-21T08:50:38;7.50;;;5.28;;
38865;SDS011;24612;48.984;8.394;2022-07-21T08:53:07;5.55;;;5.00;;
38865;SDS011;24612;48.984;8.394;2022-07-21T08:55:36;5.57;;;4.93;;
38865;SDS011;24612;48.984;8.394;2022-07-21T08:58:06;6.97;;;5.35;;
38865;SDS011;24612;48.984;8.394;2022-07-21T09:00:36;5.63;;;4.72;;
38865;SDS011;24612;48.984;8.394;2022-07-21T09:03:13;4.72;;;4.28;;
38865;SDS011;24612;48.984;8.394;2022-07-21T09:05:43;6.00;;;4.82;;
38865;SDS011;24612;48.984;8.394;2022-07-21T09:08:30;5.57;;;4.40;;
38865;SDS011;24612;48.984;8.394;2022-07-21T09:11:10;6.03;;;3.90;;
38865;SDS011;24612;48.984;8.394;2022-07-21T09:13:44;5.10;;;3.83;;
38865;SDS011;24612;48.984;8.394;2022-07-21T09:16:31;5.93;;;3.63;;
38865;SDS011;24612;48.984;8.394;2022-07-21T09:19:01;4.88;;;3.40;;
38865;SDS011;24612;48.984;8.394;2022-07-21T09:21:30;6.60;;;3.35;;
38865;SDS011;24612;48.984;8.394;2022-07-21T09:24:11;4.03;;;3.63;;
38865;SDS011;24612;48.984;8.394;2022-07-21T09:27:04;2.70;;;2.50;;
38865;SDS011;24612;48.984;8.394;2022-07-21T09:29:35;3.95;;;2.97;;
38865;SDS011;24612;48.984;8.394;2022-07-21T09:32:12;4.03;;;3.33;;
38865;SDS011;24612;48.984;8.394;2022-07-21T09:34:49;4.53;;;3.20;;
38865;SDS011;24612;48.984;8.394;2022-07-21T09:37:19;4.63;;;2.90;;
38865;SDS011;24612;48.984;8.394;2022-07-21T09:39:49;4.82;;;3.03;;
38865;SDS011;24612;48.984;8.394;2022-07-21T09:42:21;4.63;;;3.33;;
38865;SDS011;24612;48.984;8.394;2022-07-21T09:44:52;3.55;;;3.15;;
38865;SDS011;24612;48.984;8.394;2022-07-21T09:47:22;3.80;;;3.40;;
38865;SDS011;24612;48.984;8.394;2022-07-21T09:49:52;3.83;;;3.35;;
38865;SDS011;24612;48.984;8.394;2022-07-21T09:52:41;6.35;;;2.92;;
38865;SDS011;24612;48.984;8.394;2022-07-21T09:55:11;2.65;;;2.45;;
38865;SDS011;24612;48.984;8.394;2022-07-21T09:57:43;5.05;;;3.35;;
38865;SDS011;24612;48.984;8.394;2022-07-21T10:00:13;3.90;;;2.83;;
38865;SDS011;24612;48.984;8.394;2022-07-21T10:02:45;3.63;;;3.03;;
38865;SDS011;24612;48.984;8.394;2022-07-21T10:05:14;3.97;;;3.25;;
38865;SDS011;24612;48.984;8.394;2022-07-21T10:07:43;4.30;;;3.30;;
38865;SDS011;24612;48.984;8.394;2022-07-21T10:10:13;4.25;;;3.28;;
38865;SDS011;24612;48.984;8.394;2022-07-21T10:12:46;3.15;;;2.80;;
38865;SDS011;24612;48.984;8.394;2022-07-21T10:15:16;3.90;;;2.90;;
38865;SDS011;24612;48.984;8.394;2022-07-21T10:17:44;3.28;;;2.50;;
38865;SDS011;24612;48.984;8.394;2022-07-21T10:20:18;2.85;;;2.63;;
38865;SDS011;24612;48.984;8.394;2022-07-21T10:22:56;6.05;;;2.42;;
38865;SDS011;24612;48.984;8.394;2022-07-21T10:25:29;4.18;;;2.70;;
38865;SDS011;24612;48.984;8.394;2022-07-21T10:28:15;3.20;;;2.85;;
38865;SDS011;24612;48.984;8.394;2022-07-21T10:30:47;5.50;;;2.90;;
38865;SDS011;24612;48.984;8.394;2022-07-21T10:33:17;2.85;;;2.25;;
38865;SDS011;24612;48.984;8.394;2022-07-21T10:35:48;3.10;;;2.80;;
38865;SDS011;24612;48.984;8.394;2022-07-21T10:38:27;3.88;;;2.45;;
38865;SDS011;24612;48.984;8.394;2022-07-21T10:40:56;3.22;;;2.50;;
38865;SDS011;24612;48.984;8.394;2022-07-21T10:43:41;5.00;;;2.30;;
38865;SDS011;24612;48.984;8.394;2022-07-21T10:49:40;2.60;;;2.40;;
38865;SDS011;24612;48.984;8.394;2022-07-21T10:55:17;2.55;;;2.13;;
38865;SDS011;24612;48.984;8.394;2022-07-21T10:58:14;4.18;;;2.05;;
38865;SDS011;24612;48.984;8.394;2022-07-21T11:00:47;2.80;;;2.08;;
38865;SDS011;24612;48.984;8.394;2022-07-21T11:03:19;2.60;;;2.30;;
38865;SDS011;24612;48.984;8.394;2022-07-21T11:08:41;2.17;;;1.98;;
38865;SDS011;24612;48.984;8.394;2022-07-21T11:11:10;2.10;;;1.90;;
38865;SDS011;24612;48.984;8.394;2022-07-21T11:13:56;2.88;;;1.95;;
38865;SDS011;24612;48.984;8.394;2022-07-21T11:19:27;2.22;;;2.03;;
38865;SDS011;24612;48.984;8.394;2022-07-21T11:21:58;3.38;;;2.40;;
38865;SDS011;24612;48.984;8.394;2022-07-21T11:24:27;3.38;;;2.20;;
38865;SDS011;24612;48.984;8.394;2022-07-21T11:26:57;4.20;;;2.30;;
38865;SDS011;24612;48.984;8.394;2022-07-21T11:29:27;4.28;;;2.13;;
38865;SDS011;24612;48.984;8.394;2022-07-21T11:31:56;2.65;;;2.10;;
38865;SDS011;24612;48.984;8.394;2022-07-21T11:34:24;4.55;;;2.40;;
38865;SDS011;24612;48.984;8.394;2022-07-21T11:37:05;3.08;;;2.33;;
38865;SDS011;24612;48.984;8.394;2022-07-21T11:39:53;3.47;;;2.50;;
38865;SDS011;24612;48.984;8.394;2022-07-21T11:42:22;2.47;;;2.10;;
38865;SDS011;24612;48.984;8.394;2022-07-21T11:44:54;2.60;;;2.20;;
38865;SDS011;24612;48.984;8.394;2022-07-21T11:47:23;2.85;;;2.35;;
38865;SDS011;24612;48.984;8.394;2022-07-21T11:49:52;3.03;;;2.10;;
38865;SDS011;24612;48.984;8.394;2022-07-21T11:52:25;2.90;;;2.17;;
38865;SDS011;24612;48.984;8.394;2022-07-21T11:54:57;2.63;;;2.15;;
38865;SDS011;24612;48.984;8.394;2022-07-21T11:57:27;2.65;;;2.13;;
38865;SDS011;24612;48.984;8.394;2022-07-21T11:59:56;3.55;;;2.28;;
38865;SDS011;24612;48.984;8.394;2022-07-21T12:02:25;2.78;;;2.22;;
38865;SDS011;24612;48.984;8.394;2022-07-21T12:04:55;3.08;;;2.53;;
38865;SDS011;24612;48.984;8.394;2022-07-21T12:07:27;3.95;;;2.08;;
38865;SDS011;24612;48.984;8.394;2022-07-21T12:09:57;3.70;;;2.10;;
38865;SDS011;24612;48.984;8.394;2022-07-21T12:12:27;2.75;;;2.30;;
38865;SDS011;24612;48.984;8.394;2022-07-21T12:15:09;2.70;;;2.42;;
38865;SDS011;24612;48.984;8.394;2022-07-21T12:17:43;3.10;;;2.25;;
38865;SDS011;24612;48.984;8.394;2022-07-21T12:20:13;3.40;;;2.40;;
38865;SDS011;24612;48.984;8.394;2022-07-21T12:22:44;3.90;;;2.13;;
38865;SDS011;24612;48.984;8.394;2022-07-21T12:25:14;2.55;;;1.88;;
38865;SDS011;24612;48.984;8.394;2022-07-21T12:27:44;4.75;;;2.17;;
38865;SDS011;24612;48.984;8.394;2022-07-21T12:33:04;4.30;;;2.28;;
38865;SDS011;24612;48.984;8.394;2022-07-21T12:35:34;2.58;;;2.10;;
38865;SDS011;24612;48.984;8.394;2022-07-21T12:38:06;4.25;;;2.38;;
38865;SDS011;24612;48.984;8.394;2022-07-21T12:40:36;2.60;;;1.90;;
38865;SDS011;24612;48.984;8.394;2022-07-21T12:43:16;2.13;;;1.88;;
38865;SDS011;24612;48.984;8.394;2022-07-21T12:45:50;2.30;;;2.10;;
38865;SDS011;24612;48.984;8.394;2022-07-21T12:48:23;2.83;;;2.00;;
38865;SDS011;24612;48.984;8.394;2022-07-21T12:51:06;2.65;;;2.40;;
38865;SDS011;24612;48.984;8.394;2022-07-21T12:53:39;3.63;;;2.47;;
38865;SDS011;24612;48.984;8.394;2022-07-21T12:56:11;2.60;;;2.10;;
38865;SDS011;24612;48.984;8.394;2022-07-21T12:58:41;4.72;;;2.30;;
38865;SDS011;24612;48.984;8.394;2022-07-21T13:01:10;2.90;;;2.03;;
38865;SDS011;24612;48.984;8.394;2022-07-21T13:03:38;3.92;;;1.90;;
38865;SDS011;24612;48.984;8.394;2022-07-21T13:06:06;3.55;;;2.20;;
38865;SDS011;24612;48.984;8.394;2022-07-21T13:08:36;2.53;;;2.00;;
38865;SDS011;24612;48.984;8.394;2022-07-21T13:11:06;3.13;;;2.10;;
38865;SDS011;24612;48.984;8.394;2022-07-21T13:13:34;3.05;;;2.30;;
38865;SDS011;24612;48.984;8.394;2022-07-21T13:16:04;4.97;;;2.10;;
38865;SDS011;24612;48.984;8.394;2022-07-21T13:18:33;2.78;;;2.15;;
38865;SDS011;24612;48.984;8.394;2022-07-21T13:21:02;3.47;;;2.20;;
38865;SDS011;24612;48.984;8.394;2022-07-21T13:23:31;3.35;;;2.15;;
38865;SDS011;24612;48.984;8.394;2022-07-21T13:25:59;3.58;;;2.33;;
38865;SDS011;24612;48.984;8.394;2022-07-21T13:28:31;4.72;;;2.42;;
38865;SDS011;24612;48.984;8.394;2022-07-21T13:31:01;6.50;;;2.40;;
38865;SDS011;24612;48.984;8.394;2022-07-21T13:33:29;3.72;;;2.20;;
38865;SDS011;24612;48.984;8.394;2022-07-21T13:35:57;2.33;;;2.13;;
38865;SDS011;24612;48.984;8.394;2022-07-21T13:38:25;2.85;;;2.00;;
38865;SDS011;24612;48.984;8.394;2022-07-21T13:40:53;2.58;;;2.10;;
38865;SDS011;24612;48.984;8.394;2022-07-21T13:43:43;2.83;;;2.30;;
38865;SDS011;24612;48.984;8.394;2022-07-21T13:46:11;5.47;;;2.30;;
38865;SDS011;24612;48.984;8.394;2022-07-21T13:48:40;4.38;;;1.92;;
38865;SDS011;24612;48.984;8.394;2022-07-21T13:51:09;4.10;;;2.30;;
38865;SDS011;24612;48.984;8.394;2022-07-21T13:53:38;2.63;;;2.38;;
38865;SDS011;24612;48.984;8.394;2022-07-21T13:56:06;3.50;;;2.10;;
38865;SDS011;24612;48.984;8.394;2022-07-21T13:58:37;2.03;;;1.70;;
38865;SDS011;24612;48.984;8.394;2022-07-21T14:01:07;3.67;;;2.47;;
38865;SDS011;24612;48.984;8.394;2022-07-21T14:03:36;3.17;;;2.30;;
38865;SDS011;24612;48.984;8.394;2022-07-21T14:06:04;3.53;;;2.10;;
38865;SDS011;24612;48.984;8.394;2022-07-21T14:08:33;3.60;;;2.30;;
38865;SDS011;24612;48.984;8.394;2022-07-21T14:11:01;6.30;;;2.80;;
38865;SDS011;24612;48.984;8.394;2022-07-21T14:13:29;2.95;;;2.30;;
38865;SDS011;24612;48.984;8.394;2022-07-21T14:15:58;3.17;;;1.98;;
38865;SDS011;24612;48.984;8.394;2022-07-21T14:18:27;2.53;;;2.08;;
38865;SDS011;24612;48.984;8.394;2022-07-21T14:20:55;3.15;;;2.47;;
38865;SDS011;24612;48.984;8.394;2022-07-21T14:23:23;2.30;;;2.10;;
38865;SDS011;24612;48.984;8.394;2022-07-21T14:25:52;3.47;;;2.28;;
38865;SDS011;24612;48.984;8.394;2022-07-21T14:28:21;3.03;;;2.03;;
38865;SDS011;24612;48.984;8.394;2022-07-21T14:30:49;3.35;;;2.30;;
38865;SDS011;24612;48.984;8.394;2022-07-21T14:33:21;3.55;;;2.30;;
38865;SDS011;24612;48.984;8.394;2022-07-21T14:35:50;5.53;;;2.58;;
38865;SDS011;24612;48.984;8.394;2022-07-21T14:38:19;5.18;;;2.35;;
38865;SDS011;24612;48.984;8.394;2022-07-21T14:40:47;5.55;;;2.20;;
38865;SDS011;24612;48.984;8.394;2022-07-21T14:43:15;4.15;;;2.20;;
38865;SDS011;24612;48.984;8.394;2022-07-21T14:45:43;4.22;;;2.42;;
38865;SDS011;24612;48.984;8.394;2022-07-21T14:48:11;3.60;;;2.60;;
38865;SDS011;24612;48.984;8.394;2022-07-21T14:50:39;4.45;;;2.58;;
38865;SDS011;24612;48.984;8.394;2022-07-21T14:53:08;3.53;;;2.60;;
38865;SDS011;24612;48.984;8.394;2022-07-21T14:55:37;2.42;;;2.20;;
38865;SDS011;24612;48.984;8.394;2022-07-21T14:58:09;3.15;;;2.80;;
38865;SDS011;24612;48.984;8.394;2022-07-21T15:00:37;3.13;;;2.55;;
38865;SDS011;24612;48.984;8.394;2022-07-21T15:03:05;5.30;;;2.45;;
38865;SDS011;24612;48.984;8.394;2022-07-21T15:05:33;2.70;;;2.50;;
38865;SDS011;24612;48.984;8.394;2022-07-21T15:08:01;3.60;;;2.58;;
38865;SDS011;24612;48.984;8.394;2022-07-21T15:10:33;5.10;;;2.60;;
38865;SDS011;24612;48.984;8.394;2022-07-21T15:13:01;3.55;;;2.55;;
38865;SDS011;24612;48.984;8.394;2022-07-21T15:15:29;2.63;;;2.40;;
38865;SDS011;24612;48.984;8.394;2022-07-21T15:17:57;5.72;;;2.92;;
38865;SDS011;24612;48.984;8.394;2022-07-21T15:20:25;4.80;;;2.50;;
38865;SDS011;24612;48.984;8.394;2022-07-21T15:22:53;3.47;;;2.80;;
38865;SDS011;24612;48.984;8.394;2022-07-21T15:25:22;4.72;;;2.90;;
38865;SDS011;24612;48.984;8.394;2022-07-21T15:27:51;6.85;;;2.85;;
38865;SDS011;24612;48.984;8.394;2022-07-21T15:30:19;3.58;;;2.92;;
38865;SDS011;24612;48.984;8.394;2022-07-21T15:32:47;4.65;;;2.65;;
38865;SDS011;24612;48.984;8.394;2022-07-21T15:35:15;3.55;;;2.88;;
38865;SDS011;24612;48.984;8.394;2022-07-21T15:37:44;3.70;;;2.75;;
38865;SDS011;24612;48.984;8.394;2022-07-21T15:40:12;3.72;;;2.42;;
38865;SDS011;24612;48.984;8.394;2022-07-21T15:42:40;3.92;;;2.90;;
38865;SDS011;24612;48.984;8.394;2022-07-21T15:45:10;3.20;;;2.70;;
38865;SDS011;24612;48.984;8.394;2022-07-21T15:47:39;5.18;;;2.80;;
38865;SDS011;24612;48.984;8.394;2022-07-21T15:50:07;5.38;;;2.67;;